Time;durP1;ratioP1;P1;durP2;ratioP2;P2;SDS_P1;SDS_P2;PMS_P1;PMS_P2;Temp;Humidity;BMP_temperature;BMP_pressure;BME280_temperature;BME280_humidity;BME280_pressure;Samples;Min_cycle;Max_cycle;Signal;HPM_P1;HPM_P2
2021/02/13 00:00:41;;;;;;;9.700001;6.650001;;;;;;;-10.25;100;96396.31;;;;
2021/02/13 00:01:42;;;;;;;9.700001;6.650001;;;;;;;-10.25;100;96396.31;;;;
2021/02/13 00:02:44;;;;;;;9.700001;6.650001;;;;;;;-10.25;100;96396.31;;;;
2021/02/13 00:03:45;;;;;;;9.700001;6.650001;;;;;;;-10.25;100;96396.31;;;;
2021/02/13 00:04:46;;;;;;;8.9;6.3;;;;;;;-10.22;100;96395.25;;;;
2021/02/13 00:05:47;;;;;;;8.9;6.3;;;;;;;-10.22;100;96395.25;;;;
2021/02/13 00:06:47;;;;;;;8.9;6.3;;;;;;;-10.22;100;96395.25;;;;
2021/02/13 00:07:49;;;;;;;8.9;6.3;;;;;;;-10.22;100;96395.25;;;;
2021/02/13 00:08:50;;;;;;;8.9;6.3;;;;;;;-10.22;100;96395.25;;;;
2021/02/13 00:09:52;;;;;;;8.9;6.3;;;;;;;-10.22;100;96395.25;;;;
2021/02/13 00:10:54;;;;;;;8.9;6.3;;;;;;;-10.22;100;96395.25;;;;
2021/02/13 00:11:56;;;;;;;8.9;6.3;;;;;;;-10.22;100;96395.25;;;;
2021/02/13 00:12:57;;;;;;;8.9;6.3;;;;;;;-10.22;100;96395.25;;;;
2021/02/13 00:13:58;;;;;;;8.9;6.3;;;;;;;-10.22;100;96395.25;;;;
2021/02/13 00:15:01;;;;;;;11.15;6.5;;;;;;;-10.31;100;96401.03;;;;
2021/02/13 00:16:08;;;;;;;11.15;6.5;;;;;;;-10.31;100;96401.03;;;;
2021/02/13 00:17:10;;;;;;;11.15;6.5;;;;;;;-10.31;100;96401.03;;;;
2021/02/13 00:18:11;;;;;;;11.15;6.5;;;;;;;-10.31;100;96401.03;;;;
2021/02/13 00:19:12;;;;;;;11.15;6.5;;;;;;;-10.31;100;96401.03;;;;
2021/02/13 00:20:13;;;;;;;11.15;6.5;;;;;;;-10.31;100;96401.03;;;;
2021/02/13 00:21:16;;;;;;;11.15;6.5;;;;;;;-10.31;100;96401.03;;;;
2021/02/13 00:22:17;;;;;;;11.15;6.5;;;;;;;-10.31;100;96401.03;;;;
2021/02/13 00:23:18;;;;;;;11.15;6.5;;;;;;;-10.31;100;96401.03;;;;
2021/02/13 00:24:19;;;;;;;11.15;6.5;;;;;;;-10.31;100;96401.03;;;;
2021/02/13 00:25:20;;;;;;;10.65;6.3;;;;;;;-10.38;100;96411.86;;;;
2021/02/13 00:26:25;;;;;;;10.65;6.3;;;;;;;-10.38;100;96411.86;;;;
2021/02/13 00:27:26;;;;;;;10.65;6.3;;;;;;;-10.38;100;96411.86;;;;
2021/02/13 00:28:26;;;;;;;10.65;6.3;;;;;;;-10.38;100;96411.86;;;;
2021/02/13 00:29:27;;;;;;;10.65;6.3;;;;;;;-10.38;100;96411.86;;;;
2021/02/13 00:30:27;;;;;;;10.65;6.3;;;;;;;-10.38;100;96411.86;;;;
2021/02/13 00:31:30;;;;;;;10.65;6.3;;;;;;;-10.38;100;96411.86;;;;
2021/02/13 00:32:30;;;;;;;10.65;6.3;;;;;;;-10.38;100;96411.86;;;;
2021/02/13 00:33:31;;;;;;;10.65;6.3;;;;;;;-10.38;100;96411.86;;;;
2021/02/13 00:34:31;;;;;;;10.65;6.3;;;;;;;-10.38;100;96411.86;;;;
2021/02/13 00:35:32;;;;;;;10.65;6.3;;;;;;;-10.38;100;96411.86;;;;
2021/02/13 00:36:33;;;;;;;9.900001;6.5;;;;;;;-10.45;100;96413.11;;;;
2021/02/13 00:37:34;;;;;;;9.900001;6.5;;;;;;;-10.45;100;96413.11;;;;
2021/02/13 00:38:35;;;;;;;9.900001;6.5;;;;;;;-10.45;100;96413.11;;;;
2021/02/13 00:39:35;;;;;;;9.900001;6.5;;;;;;;-10.45;100;96413.11;;;;
2021/02/13 00:40:36;;;;;;;9.900001;6.5;;;;;;;-10.45;100;96413.11;;;;
2021/02/13 00:41:38;;;;;;;9.900001;6.5;;;;;;;-10.45;100;96413.11;;;;
2021/02/13 00:42:39;;;;;;;9.900001;6.5;;;;;;;-10.45;100;96413.11;;;;
2021/02/13 00:43:40;;;;;;;9.900001;6.5;;;;;;;-10.45;100;96413.11;;;;
2021/02/13 00:44:42;;;;;;;9.900001;6.5;;;;;;;-10.45;100;96413.11;;;;
2021/02/13 00:45:42;;;;;;;9.900001;6.5;;;;;;;-10.45;100;96413.11;;;;
2021/02/13 00:46:43;;;;;;;11.5;6.199999;;;;;;;-10.51;100;96418.19;;;;
2021/02/13 00:47:45;;;;;;;11.5;6.199999;;;;;;;-10.51;100;96418.19;;;;
2021/02/13 00:48:46;;;;;;;11.5;6.199999;;;;;;;-10.51;100;96418.19;;;;
2021/02/13 00:49:48;;;;;;;11.5;6.199999;;;;;;;-10.51;100;96418.19;;;;
2021/02/13 00:50:49;;;;;;;11.5;6.199999;;;;;;;-10.51;100;96418.19;;;;
2021/02/13 00:51:49;;;;;;;11.5;6.199999;;;;;;;-10.51;100;96418.19;;;;
2021/02/13 00:52:50;;;;;;;11.5;6.199999;;;;;;;-10.51;100;96418.19;;;;
2021/02/13 00:53:50;;;;;;;11.5;6.199999;;;;;;;-10.51;100;96418.19;;;;
2021/02/13 00:54:51;;;;;;;11.5;6.199999;;;;;;;-10.51;100;96418.19;;;;
2021/02/13 00:55:52;;;;;;;11.5;6.199999;;;;;;;-10.51;100;96418.19;;;;
2021/02/13 00:56:53;;;;;;;11.5;6.199999;;;;;;;-10.51;100;96418.19;;;;
2021/02/13 00:57:58;;;;;;;11;6.65;;;;;;;-10.58;100;96420.75;;;;
2021/02/13 00:58:59;;;;;;;11;6.65;;;;;;;-10.58;100;96420.75;;;;
2021/02/13 01:00:00;;;;;;;11;6.65;;;;;;;-10.58;100;96420.75;;;;
2021/02/13 01:01:01;;;;;;;11;6.65;;;;;;;-10.58;100;96420.75;;;;
2021/02/13 01:02:03;;;;;;;11;6.65;;;;;;;-10.58;100;96420.75;;;;
2021/02/13 01:03:04;;;;;;;11;6.65;;;;;;;-10.58;100;96420.75;;;;
2021/02/13 01:04:06;;;;;;;11;6.65;;;;;;;-10.58;100;96420.75;;;;
2021/02/13 01:05:07;;;;;;;11;6.65;;;;;;;-10.58;100;96420.75;;;;
2021/02/13 01:06:08;;;;;;;11;6.65;;;;;;;-10.58;100;96420.75;;;;
2021/02/13 01:07:10;;;;;;;11;6.65;;;;;;;-10.58;100;96420.75;;;;
2021/02/13 01:08:11;;;;;;;10.75;7;;;;;;;-10.64;100;96424.55;;;;
2021/02/13 01:09:12;;;;;;;10.75;7;;;;;;;-10.64;100;96424.55;;;;
2021/02/13 01:10:14;;;;;;;10.75;7;;;;;;;-10.64;100;96424.55;;;;
2021/02/13 01:11:17;;;;;;;10.75;7;;;;;;;-10.64;100;96424.55;;;;
2021/02/13 01:12:18;;;;;;;10.75;7;;;;;;;-10.64;100;96424.55;;;;
2021/02/13 01:13:19;;;;;;;10.75;7;;;;;;;-10.64;100;96424.55;;;;
2021/02/13 01:14:20;;;;;;;10.75;7;;;;;;;-10.64;100;96424.55;;;;
2021/02/13 01:15:20;;;;;;;10.75;7;;;;;;;-10.64;100;96424.55;;;;
2021/02/13 01:16:21;;;;;;;10.75;7;;;;;;;-10.64;100;96424.55;;;;
2021/02/13 01:17:22;;;;;;;10.75;7;;;;;;;-10.64;100;96424.55;;;;
2021/02/13 01:18:22;;;;;;;10.75;7;;;;;;;-10.64;100;96424.55;;;;
2021/02/13 01:19:23;;;;;;;9.150001;6.8;;;;;;;-10.69;100;96434.39;;;;
2021/02/13 01:20:23;;;;;;;9.150001;6.8;;;;;;;-10.69;100;96434.39;;;;
2021/02/13 01:21:25;;;;;;;9.150001;6.8;;;;;;;-10.69;100;96434.39;;;;
2021/02/13 01:22:26;;;;;;;9.150001;6.8;;;;;;;-10.69;100;96434.39;;;;
2021/02/13 01:23:26;;;;;;;9.150001;6.8;;;;;;;-10.69;100;96434.39;;;;
2021/02/13 01:24:27;;;;;;;9.150001;6.8;;;;;;;-10.69;100;96434.39;;;;
2021/02/13 01:25:28;;;;;;;9.150001;6.8;;;;;;;-10.69;100;96434.39;;;;
2021/02/13 01:26:34;;;;;;;9.150001;6.8;;;;;;;-10.69;100;96434.39;;;;
2021/02/13 01:27:37;;;;;;;9.150001;6.8;;;;;;;-10.69;100;96434.39;;;;
2021/02/13 01:28:41;;;;;;;9.150001;6.8;;;;;;;-10.69;100;96434.39;;;;
2021/02/13 01:29:43;;;;;;;9.75;6.3;;;;;;;-10.64;100;96434.14;;;;
2021/02/13 01:30:43;;;;;;;9.75;6.3;;;;;;;-10.64;100;96434.14;;;;
2021/02/13 01:31:44;;;;;;;9.75;6.3;;;;;;;-10.64;100;96434.14;;;;
2021/02/13 01:32:44;;;;;;;9.75;6.3;;;;;;;-10.64;100;96434.14;;;;
2021/02/13 01:33:45;;;;;;;9.75;6.3;;;;;;;-10.64;100;96434.14;;;;
2021/02/13 01:34:45;;;;;;;9.75;6.3;;;;;;;-10.64;100;96434.14;;;;
2021/02/13 01:35:46;;;;;;;9.75;6.3;;;;;;;-10.64;100;96434.14;;;;
2021/02/13 01:36:47;;;;;;;9.75;6.3;;;;;;;-10.64;100;96434.14;;;;
2021/02/13 01:37:47;;;;;;;9.75;6.3;;;;;;;-10.64;100;96434.14;;;;
2021/02/13 01:38:48;;;;;;;9.75;6.3;;;;;;;-10.64;100;96434.14;;;;
2021/02/13 01:39:49;;;;;;;9.75;6.3;;;;;;;-10.64;100;96434.14;;;;
2021/02/13 01:40:50;;;;;;;8.749998;6.15;;;;;;;-10.63;100;96430.56;;;;
2021/02/13 01:41:50;;;;;;;8.749998;6.15;;;;;;;-10.63;100;96430.56;;;;
2021/02/13 01:42:51;;;;;;;8.749998;6.15;;;;;;;-10.63;100;96430.56;;;;
2021/02/13 01:43:51;;;;;;;8.749998;6.15;;;;;;;-10.63;100;96430.56;;;;
2021/02/13 01:44:52;;;;;;;8.749998;6.15;;;;;;;-10.63;100;96430.56;;;;
2021/02/13 01:45:52;;;;;;;8.749998;6.15;;;;;;;-10.63;100;96430.56;;;;
2021/02/13 01:46:54;;;;;;;8.749998;6.15;;;;;;;-10.63;100;96430.56;;;;
2021/02/13 01:47:55;;;;;;;8.749998;6.15;;;;;;;-10.63;100;96430.56;;;;
2021/02/13 01:48:56;;;;;;;8.749998;6.15;;;;;;;-10.63;100;96430.56;;;;
2021/02/13 01:49:57;;;;;;;8.749998;6.15;;;;;;;-10.63;100;96430.56;;;;
2021/02/13 01:50:58;;;;;;;9.6;6.65;;;;;;;-10.71;100;96439.29;;;;
2021/02/13 01:51:59;;;;;;;9.6;6.65;;;;;;;-10.71;100;96439.29;;;;
2021/02/13 01:53:00;;;;;;;9.6;6.65;;;;;;;-10.71;100;96439.29;;;;
2021/02/13 01:54:02;;;;;;;9.6;6.65;;;;;;;-10.71;100;96439.29;;;;
2021/02/13 01:55:03;;;;;;;9.6;6.65;;;;;;;-10.71;100;96439.29;;;;
2021/02/13 01:56:08;;;;;;;9.6;6.65;;;;;;;-10.71;100;96439.29;;;;
2021/02/13 01:57:09;;;;;;;9.6;6.65;;;;;;;-10.71;100;96439.29;;;;
2021/02/13 01:58:09;;;;;;;9.6;6.65;;;;;;;-10.71;100;96439.29;;;;
2021/02/13 01:59:11;;;;;;;9.6;6.65;;;;;;;-10.71;100;96439.29;;;;
2021/02/13 02:00:16;;;;;;;9.6;6.65;;;;;;;-10.71;100;96439.29;;;;
2021/02/13 02:01:19;;;;;;;9.6;6.65;;;;;;;-10.71;100;96439.29;;;;
2021/02/13 02:02:20;;;;;;;9.099999;6.5;;;;;;;-10.84;100;96426.9;;;;
2021/02/13 02:03:20;;;;;;;9.099999;6.5;;;;;;;-10.84;100;96426.9;;;;
2021/02/13 02:04:21;;;;;;;9.099999;6.5;;;;;;;-10.84;100;96426.9;;;;
2021/02/13 02:05:22;;;;;;;9.099999;6.5;;;;;;;-10.84;100;96426.9;;;;
2021/02/13 02:06:23;;;;;;;9.099999;6.5;;;;;;;-10.84;100;96426.9;;;;
2021/02/13 02:07:25;;;;;;;9.099999;6.5;;;;;;;-10.84;100;96426.9;;;;
2021/02/13 02:08:27;;;;;;;9.099999;6.5;;;;;;;-10.84;100;96426.9;;;;
2021/02/13 02:09:27;;;;;;;9.099999;6.5;;;;;;;-10.84;100;96426.9;;;;
2021/02/13 02:10:28;;;;;;;9.099999;6.5;;;;;;;-10.84;100;96426.9;;;;
2021/02/13 02:11:29;;;;;;;9.099999;6.5;;;;;;;-10.84;100;96426.9;;;;
2021/02/13 02:12:30;;;;;;;9.9;6.849999;;;;;;;-10.93;100;96432.62;;;;
2021/02/13 02:13:31;;;;;;;9.9;6.849999;;;;;;;-10.93;100;96432.62;;;;
2021/02/13 02:14:31;;;;;;;9.9;6.849999;;;;;;;-10.93;100;96432.62;;;;
2021/02/13 02:15:32;;;;;;;9.9;6.849999;;;;;;;-10.93;100;96432.62;;;;
2021/02/13 02:16:33;;;;;;;9.9;6.849999;;;;;;;-10.93;100;96432.62;;;;
2021/02/13 02:17:34;;;;;;;9.9;6.849999;;;;;;;-10.93;100;96432.62;;;;
2021/02/13 02:18:35;;;;;;;9.9;6.849999;;;;;;;-10.93;100;96432.62;;;;
2021/02/13 02:19:36;;;;;;;9.9;6.849999;;;;;;;-10.93;100;96432.62;;;;
2021/02/13 02:20:39;;;;;;;9.9;6.849999;;;;;;;-10.93;100;96432.62;;;;
2021/02/13 02:21:39;;;;;;;9.9;6.849999;;;;;;;-10.93;100;96432.62;;;;
2021/02/13 02:22:40;;;;;;;9.9;6.849999;;;;;;;-10.93;100;96432.62;;;;
2021/02/13 02:23:42;;;;;;;10.05;6.65;;;;;;;-10.89;100;96441.09;;;;
2021/02/13 02:24:43;;;;;;;10.05;6.65;;;;;;;-10.89;100;96441.09;;;;
2021/02/13 02:25:44;;;;;;;10.05;6.65;;;;;;;-10.89;100;96441.09;;;;
2021/02/13 02:26:44;;;;;;;10.05;6.65;;;;;;;-10.89;100;96441.09;;;;
2021/02/13 02:27:45;;;;;;;10.05;6.65;;;;;;;-10.89;100;96441.09;;;;
2021/02/13 02:28:47;;;;;;;10.05;6.65;;;;;;;-10.89;100;96441.09;;;;
2021/02/13 02:29:47;;;;;;;10.05;6.65;;;;;;;-10.89;100;96441.09;;;;
2021/02/13 02:30:48;;;;;;;10.05;6.65;;;;;;;-10.89;100;96441.09;;;;
2021/02/13 02:31:48;;;;;;;10.05;6.65;;;;;;;-10.89;100;96441.09;;;;
2021/02/13 02:32:49;;;;;;;10.05;6.65;;;;;;;-10.89;100;96441.09;;;;
2021/02/13 02:33:50;;;;;;;11.15;6.75;;;;;;;-10.98;100;96440.7;;;;
2021/02/13 02:34:50;;;;;;;11.15;6.75;;;;;;;-10.98;100;96440.7;;;;
2021/02/13 02:35:51;;;;;;;11.15;6.75;;;;;;;-10.98;100;96440.7;;;;
2021/02/13 02:36:52;;;;;;;11.15;6.75;;;;;;;-10.98;100;96440.7;;;;
2021/02/13 02:37:52;;;;;;;11.15;6.75;;;;;;;-10.98;100;96440.7;;;;
2021/02/13 02:38:54;;;;;;;11.15;6.75;;;;;;;-10.98;100;96440.7;;;;
2021/02/13 02:39:55;;;;;;;11.15;6.75;;;;;;;-10.98;100;96440.7;;;;
2021/02/13 02:40:56;;;;;;;11.15;6.75;;;;;;;-10.98;100;96440.7;;;;
2021/02/13 02:41:57;;;;;;;11.15;6.75;;;;;;;-10.98;100;96440.7;;;;
2021/02/13 02:42:58;;;;;;;11.15;6.75;;;;;;;-10.98;100;96440.7;;;;
2021/02/13 02:43:59;;;;;;;11.15;6.75;;;;;;;-10.98;100;96440.7;;;;
2021/02/13 02:44:59;;;;;;;10.2;6.849999;;;;;;;-10.98;100;96449.82;;;;
2021/02/13 02:46:01;;;;;;;10.2;6.849999;;;;;;;-10.98;100;96449.82;;;;
2021/02/13 02:47:02;;;;;;;10.2;6.849999;;;;;;;-10.98;100;96449.82;;;;
2021/02/13 02:48:03;;;;;;;10.2;6.849999;;;;;;;-10.98;100;96449.82;;;;
2021/02/13 02:49:04;;;;;;;10.2;6.849999;;;;;;;-10.98;100;96449.82;;;;
2021/02/13 02:50:06;;;;;;;10.2;6.849999;;;;;;;-10.98;100;96449.82;;;;
2021/02/13 02:51:11;;;;;;;10.2;6.849999;;;;;;;-10.98;100;96449.82;;;;
2021/02/13 02:52:11;;;;;;;10.2;6.849999;;;;;;;-10.98;100;96449.82;;;;
2021/02/13 02:53:17;;;;;;;10.2;6.849999;;;;;;;-10.98;100;96449.82;;;;
2021/02/13 02:54:17;;;;;;;10.2;6.849999;;;;;;;-10.98;100;96449.82;;;;
2021/02/13 02:55:19;;;;;;;10.9;6.749999;;;;;;;-10.98;100;96445.03;;;;
2021/02/13 02:56:20;;;;;;;10.9;6.749999;;;;;;;-10.98;100;96445.03;;;;
2021/02/13 02:57:22;;;;;;;10.9;6.749999;;;;;;;-10.98;100;96445.03;;;;
2021/02/13 02:58:23;;;;;;;10.9;6.749999;;;;;;;-10.98;100;96445.03;;;;
2021/02/13 02:59:23;;;;;;;10.9;6.749999;;;;;;;-10.98;100;96445.03;;;;
2021/02/13 03:00:24;;;;;;;10.9;6.749999;;;;;;;-10.98;100;96445.03;;;;
2021/02/13 03:01:24;;;;;;;10.9;6.749999;;;;;;;-10.98;100;96445.03;;;;
2021/02/13 03:02:25;;;;;;;10.9;6.749999;;;;;;;-10.98;100;96445.03;;;;
2021/02/13 03:03:26;;;;;;;10.9;6.749999;;;;;;;-10.98;100;96445.03;;;;
2021/02/13 03:04:27;;;;;;;10.9;6.749999;;;;;;;-10.98;100;96445.03;;;;
2021/02/13 03:05:28;;;;;;;10.9;6.749999;;;;;;;-10.98;100;96445.03;;;;
2021/02/13 03:06:28;;;;;;;9.75;6.85;;;;;;;-11.04;100;96446.21;;;;
2021/02/13 03:07:29;;;;;;;9.75;6.85;;;;;;;-11.04;100;96446.21;;;;
2021/02/13 03:08:29;;;;;;;9.75;6.85;;;;;;;-11.04;100;96446.21;;;;
2021/02/13 03:09:30;;;;;;;9.75;6.85;;;;;;;-11.04;100;96446.21;;;;
2021/02/13 03:10:31;;;;;;;9.75;6.85;;;;;;;-11.04;100;96446.21;;;;
2021/02/13 03:11:32;;;;;;;9.75;6.85;;;;;;;-11.04;100;96446.21;;;;
2021/02/13 03:12:33;;;;;;;9.75;6.85;;;;;;;-11.04;100;96446.21;;;;
2021/02/13 03:13:34;;;;;;;9.75;6.85;;;;;;;-11.04;100;96446.21;;;;
2021/02/13 03:14:35;;;;;;;9.75;6.85;;;;;;;-11.04;100;96446.21;;;;
2021/02/13 03:15:36;;;;;;;9.75;6.85;;;;;;;-11.04;100;96446.21;;;;
2021/02/13 03:16:36;;;;;;;11.1;7.199999;;;;;;;-11.1;100;96449.6;;;;
2021/02/13 03:17:37;;;;;;;11.1;7.199999;;;;;;;-11.1;100;96449.6;;;;
2021/02/13 03:18:41;;;;;;;11.1;7.199999;;;;;;;-11.1;100;96449.6;;;;
2021/02/13 03:19:42;;;;;;;11.1;7.199999;;;;;;;-11.1;100;96449.6;;;;
2021/02/13 03:20:44;;;;;;;11.1;7.199999;;;;;;;-11.1;100;96449.6;;;;
2021/02/13 03:21:45;;;;;;;11.1;7.199999;;;;;;;-11.1;100;96449.6;;;;
2021/02/13 03:22:46;;;;;;;11.1;7.199999;;;;;;;-11.1;100;96449.6;;;;
2021/02/13 03:23:48;;;;;;;11.1;7.199999;;;;;;;-11.1;100;96449.6;;;;
2021/02/13 03:24:50;;;;;;;11.1;7.199999;;;;;;;-11.1;100;96449.6;;;;
2021/02/13 03:25:51;;;;;;;11.1;7.199999;;;;;;;-11.1;100;96449.6;;;;
2021/02/13 03:26:51;;;;;;;11.85;7.2;;;;;;;-11.14;100;96457.61;;;;
2021/02/13 03:27:52;;;;;;;11.85;7.2;;;;;;;-11.14;100;96457.61;;;;
2021/02/13 03:28:53;;;;;;;11.85;7.2;;;;;;;-11.14;100;96457.61;;;;
2021/02/13 03:29:53;;;;;;;11.85;7.2;;;;;;;-11.14;100;96457.61;;;;
2021/02/13 03:30:54;;;;;;;11.85;7.2;;;;;;;-11.14;100;96457.61;;;;
2021/02/13 03:31:54;;;;;;;11.85;7.2;;;;;;;-11.14;100;96457.61;;;;
2021/02/13 03:32:55;;;;;;;11.85;7.2;;;;;;;-11.14;100;96457.61;;;;
2021/02/13 03:33:56;;;;;;;11.85;7.2;;;;;;;-11.14;100;96457.61;;;;
2021/02/13 03:34:56;;;;;;;11.85;7.2;;;;;;;-11.14;100;96457.61;;;;
2021/02/13 03:35:57;;;;;;;11.85;7.2;;;;;;;-11.14;100;96457.61;;;;
2021/02/13 03:36:57;;;;;;;11.85;7.2;;;;;;;-11.14;100;96457.61;;;;
2021/02/13 03:37:58;;;;;;;11.85;7.199999;;;;;;;-11.18;100;96454.77;;;;
2021/02/13 03:38:58;;;;;;;11.85;7.199999;;;;;;;-11.18;100;96454.77;;;;
2021/02/13 03:39:59;;;;;;;11.85;7.199999;;;;;;;-11.18;100;96454.77;;;;
2021/02/13 03:41:00;;;;;;;11.85;7.199999;;;;;;;-11.18;100;96454.77;;;;
2021/02/13 03:42:01;;;;;;;11.85;7.199999;;;;;;;-11.18;100;96454.77;;;;
2021/02/13 03:43:02;;;;;;;11.85;7.199999;;;;;;;-11.18;100;96454.77;;;;
2021/02/13 03:44:02;;;;;;;11.85;7.199999;;;;;;;-11.18;100;96454.77;;;;
2021/02/13 03:45:03;;;;;;;11.85;7.199999;;;;;;;-11.18;100;96454.77;;;;
2021/02/13 03:46:06;;;;;;;11.85;7.199999;;;;;;;-11.18;100;96454.77;;;;
2021/02/13 03:47:06;;;;;;;11.85;7.199999;;;;;;;-11.18;100;96454.77;;;;
2021/02/13 03:48:06;;;;;;;11.85;7.199999;;;;;;;-11.18;100;96454.77;;;;
2021/02/13 03:49:07;;;;;;;12.9;7.75;;;;;;;-11.26;100;96469.08;;;;
2021/02/13 03:50:08;;;;;;;12.9;7.75;;;;;;;-11.26;100;96469.08;;;;
2021/02/13 03:51:11;;;;;;;12.9;7.75;;;;;;;-11.26;100;96469.08;;;;
2021/02/13 03:52:11;;;;;;;12.9;7.75;;;;;;;-11.26;100;96469.08;;;;
2021/02/13 03:53:12;;;;;;;12.9;7.75;;;;;;;-11.26;100;96469.08;;;;
2021/02/13 03:54:12;;;;;;;12.9;7.75;;;;;;;-11.26;100;96469.08;;;;
2021/02/13 03:55:13;;;;;;;12.9;7.75;;;;;;;-11.26;100;96469.08;;;;
2021/02/13 03:56:14;;;;;;;12.9;7.75;;;;;;;-11.26;100;96469.08;;;;
2021/02/13 03:57:16;;;;;;;12.9;7.75;;;;;;;-11.26;100;96469.08;;;;
2021/02/13 03:58:17;;;;;;;12.9;7.75;;;;;;;-11.26;100;96469.08;;;;
2021/02/13 03:59:19;;;;;;;11.2;7.900001;;;;;;;-11.23;100;96471.09;;;;
2021/02/13 04:00:21;;;;;;;11.2;7.900001;;;;;;;-11.23;100;96471.09;;;;
2021/02/13 04:01:21;;;;;;;11.2;7.900001;;;;;;;-11.23;100;96471.09;;;;
2021/02/13 04:02:22;;;;;;;11.2;7.900001;;;;;;;-11.23;100;96471.09;;;;
2021/02/13 04:03:22;;;;;;;11.2;7.900001;;;;;;;-11.23;100;96471.09;;;;
2021/02/13 04:04:23;;;;;;;11.2;7.900001;;;;;;;-11.23;100;96471.09;;;;
2021/02/13 04:05:23;;;;;;;11.2;7.900001;;;;;;;-11.23;100;96471.09;;;;
2021/02/13 04:06:24;;;;;;;11.2;7.900001;;;;;;;-11.23;100;96471.09;;;;
2021/02/13 04:07:25;;;;;;;11.2;7.900001;;;;;;;-11.23;100;96471.09;;;;
2021/02/13 04:08:26;;;;;;;11.2;7.900001;;;;;;;-11.23;100;96471.09;;;;
2021/02/13 04:09:26;;;;;;;11.2;7.900001;;;;;;;-11.23;100;96471.09;;;;
2021/02/13 04:10:27;;;;;;;12.8;8.55;;;;;;;-11.28;100;96479.61;;;;
2021/02/13 04:11:27;;;;;;;12.8;8.55;;;;;;;-11.28;100;96479.61;;;;
2021/02/13 04:12:28;;;;;;;12.8;8.55;;;;;;;-11.28;100;96479.61;;;;
2021/02/13 04:13:28;;;;;;;12.8;8.55;;;;;;;-11.28;100;96479.61;;;;
2021/02/13 04:14:29;;;;;;;12.8;8.55;;;;;;;-11.28;100;96479.61;;;;
2021/02/13 04:15:30;;;;;;;12.8;8.55;;;;;;;-11.28;100;96479.61;;;;
2021/02/13 04:16:31;;;;;;;12.8;8.55;;;;;;;-11.28;100;96479.61;;;;
2021/02/13 04:17:31;;;;;;;12.8;8.55;;;;;;;-11.28;100;96479.61;;;;
2021/02/13 04:18:33;;;;;;;12.8;8.55;;;;;;;-11.28;100;96479.61;;;;
2021/02/13 04:19:33;;;;;;;12.8;8.55;;;;;;;-11.28;100;96479.61;;;;
2021/02/13 04:20:34;;;;;;;10.5;7.550001;;;;;;;-11.35;100;96501.2;;;;
2021/02/13 04:21:35;;;;;;;10.5;7.550001;;;;;;;-11.35;100;96501.2;;;;
2021/02/13 04:22:36;;;;;;;10.5;7.550001;;;;;;;-11.35;100;96501.2;;;;
2021/02/13 04:23:36;;;;;;;10.5;7.550001;;;;;;;-11.35;100;96501.2;;;;
2021/02/13 04:24:37;;;;;;;10.5;7.550001;;;;;;;-11.35;100;96501.2;;;;
2021/02/13 04:25:38;;;;;;;10.5;7.550001;;;;;;;-11.35;100;96501.2;;;;
2021/02/13 04:26:46;;;;;;;10.5;7.550001;;;;;;;-11.35;100;96501.2;;;;
2021/02/13 04:27:46;;;;;;;10.5;7.550001;;;;;;;-11.35;100;96501.2;;;;
2021/02/13 04:28:47;;;;;;;10.5;7.550001;;;;;;;-11.35;100;96501.2;;;;
2021/02/13 04:29:47;;;;;;;10.5;7.550001;;;;;;;-11.35;100;96501.2;;;;
2021/02/13 04:30:48;;;;;;;10.5;7.550001;;;;;;;-11.35;100;96501.2;;;;
2021/02/13 04:31:48;;;;;;;14.05;7.6;;;;;;;-11.41;100;96508.45;;;;
2021/02/13 04:32:51;;;;;;;14.05;7.6;;;;;;;-11.41;100;96508.45;;;;
2021/02/13 04:33:52;;;;;;;14.05;7.6;;;;;;;-11.41;100;96508.45;;;;
2021/02/13 04:34:52;;;;;;;14.05;7.6;;;;;;;-11.41;100;96508.45;;;;
2021/02/13 04:35:52;;;;;;;14.05;7.6;;;;;;;-11.41;100;96508.45;;;;
2021/02/13 04:36:53;;;;;;;14.05;7.6;;;;;;;-11.41;100;96508.45;;;;
2021/02/13 04:37:53;;;;;;;14.05;7.6;;;;;;;-11.41;100;96508.45;;;;
2021/02/13 04:38:54;;;;;;;14.05;7.6;;;;;;;-11.41;100;96508.45;;;;
2021/02/13 04:39:54;;;;;;;14.05;7.6;;;;;;;-11.41;100;96508.45;;;;
2021/02/13 04:40:55;;;;;;;14.05;7.6;;;;;;;-11.41;100;96508.45;;;;
2021/02/13 04:41:55;;;;;;;12.25;7.95;;;;;;;-11.48;100;96518.81;;;;
2021/02/13 04:42:56;;;;;;;12.25;7.95;;;;;;;-11.48;100;96518.81;;;;
2021/02/13 04:43:58;;;;;;;12.25;7.95;;;;;;;-11.48;100;96518.81;;;;
2021/02/13 04:44:59;;;;;;;12.25;7.95;;;;;;;-11.48;100;96518.81;;;;
2021/02/13 04:45:59;;;;;;;12.25;7.95;;;;;;;-11.48;100;96518.81;;;;
2021/02/13 04:47:00;;;;;;;12.25;7.95;;;;;;;-11.48;100;96518.81;;;;
2021/02/13 04:48:00;;;;;;;12.25;7.95;;;;;;;-11.48;100;96518.81;;;;
2021/02/13 04:49:02;;;;;;;12.25;7.95;;;;;;;-11.48;100;96518.81;;;;
2021/02/13 04:50:02;;;;;;;12.25;7.95;;;;;;;-11.48;100;96518.81;;;;
2021/02/13 04:51:03;;;;;;;12.25;7.95;;;;;;;-11.48;100;96518.81;;;;
2021/02/13 04:52:04;;;;;;;12.25;7.95;;;;;;;-11.48;100;96518.81;;;;
2021/02/13 04:53:04;;;;;;;13.85;7.799999;;;;;;;-11.51;100;96526.78;;;;
2021/02/13 04:54:05;;;;;;;13.85;7.799999;;;;;;;-11.51;100;96526.78;;;;
2021/02/13 04:55:06;;;;;;;13.85;7.799999;;;;;;;-11.51;100;96526.78;;;;
2021/02/13 04:56:07;;;;;;;13.85;7.799999;;;;;;;-11.51;100;96526.78;;;;
2021/02/13 04:57:10;;;;;;;13.85;7.799999;;;;;;;-11.51;100;96526.78;;;;
2021/02/13 04:58:11;;;;;;;13.85;7.799999;;;;;;;-11.51;100;96526.78;;;;
2021/02/13 04:59:11;;;;;;;13.85;7.799999;;;;;;;-11.51;100;96526.78;;;;
2021/02/13 05:00:12;;;;;;;13.85;7.799999;;;;;;;-11.51;100;96526.78;;;;
2021/02/13 05:01:15;;;;;;;13.85;7.799999;;;;;;;-11.51;100;96526.78;;;;
2021/02/13 05:02:15;;;;;;;13.85;7.799999;;;;;;;-11.51;100;96526.78;;;;
2021/02/13 05:03:16;;;;;;;13.05;8.15;;;;;;;-11.58;100;96532.3;;;;
2021/02/13 05:04:16;;;;;;;13.05;8.15;;;;;;;-11.58;100;96532.3;;;;
2021/02/13 05:05:17;;;;;;;13.05;8.15;;;;;;;-11.58;100;96532.3;;;;
2021/02/13 05:06:18;;;;;;;13.05;8.15;;;;;;;-11.58;100;96532.3;;;;
2021/02/13 05:07:18;;;;;;;13.05;8.15;;;;;;;-11.58;100;96532.3;;;;
2021/02/13 05:08:19;;;;;;;13.05;8.15;;;;;;;-11.58;100;96532.3;;;;
2021/02/13 05:09:20;;;;;;;13.05;8.15;;;;;;;-11.58;100;96532.3;;;;
2021/02/13 05:10:20;;;;;;;13.05;8.15;;;;;;;-11.58;100;96532.3;;;;
2021/02/13 05:11:21;;;;;;;13.05;8.15;;;;;;;-11.58;100;96532.3;;;;
2021/02/13 05:12:22;;;;;;;13.05;8.15;;;;;;;-11.58;100;96532.3;;;;
2021/02/13 05:13:23;;;;;;;13.05;8.15;;;;;;;-11.58;100;96532.3;;;;
2021/02/13 05:14:24;;;;;;;12.5;8.35;;;;;;;-11.53;100;96538.16;;;;
2021/02/13 05:15:24;;;;;;;12.5;8.35;;;;;;;-11.53;100;96538.16;;;;
2021/02/13 05:16:25;;;;;;;12.5;8.35;;;;;;;-11.53;100;96538.16;;;;
2021/02/13 05:17:25;;;;;;;12.5;8.35;;;;;;;-11.53;100;96538.16;;;;
2021/02/13 05:18:26;;;;;;;12.5;8.35;;;;;;;-11.53;100;96538.16;;;;
2021/02/13 05:19:26;;;;;;;12.5;8.35;;;;;;;-11.53;100;96538.16;;;;
2021/02/13 05:20:27;;;;;;;12.5;8.35;;;;;;;-11.53;100;96538.16;;;;
2021/02/13 05:21:27;;;;;;;12.5;8.35;;;;;;;-11.53;100;96538.16;;;;
2021/02/13 05:22:28;;;;;;;12.5;8.35;;;;;;;-11.53;100;96538.16;;;;
2021/02/13 05:23:29;;;;;;;12.5;8.35;;;;;;;-11.53;100;96538.16;;;;
2021/02/13 05:24:29;;;;;;;11.4;8.150001;;;;;;;-11.53;100;96555.49;;;;
2021/02/13 05:25:30;;;;;;;11.4;8.150001;;;;;;;-11.53;100;96555.49;;;;
2021/02/13 05:26:30;;;;;;;11.4;8.150001;;;;;;;-11.53;100;96555.49;;;;
2021/02/13 05:27:31;;;;;;;11.4;8.150001;;;;;;;-11.53;100;96555.49;;;;
2021/02/13 05:28:31;;;;;;;11.4;8.150001;;;;;;;-11.53;100;96555.49;;;;
2021/02/13 05:29:32;;;;;;;11.4;8.150001;;;;;;;-11.53;100;96555.49;;;;
2021/02/13 05:30:32;;;;;;;11.4;8.150001;;;;;;;-11.53;100;96555.49;;;;
2021/02/13 05:31:33;;;;;;;11.4;8.150001;;;;;;;-11.53;100;96555.49;;;;
2021/02/13 05:32:33;;;;;;;11.4;8.150001;;;;;;;-11.53;100;96555.49;;;;
2021/02/13 05:33:34;;;;;;;11.4;8.150001;;;;;;;-11.53;100;96555.49;;;;
2021/02/13 05:34:36;;;;;;;11.4;8.150001;;;;;;;-11.53;100;96555.49;;;;
2021/02/13 05:35:37;;;;;;;13.05;8.699999;;;;;;;-11.52;100;96555.46;;;;
2021/02/13 05:36:37;;;;;;;13.05;8.699999;;;;;;;-11.52;100;96555.46;;;;
2021/02/13 05:37:38;;;;;;;13.05;8.699999;;;;;;;-11.52;100;96555.46;;;;
2021/02/13 05:38:39;;;;;;;13.05;8.699999;;;;;;;-11.52;100;96555.46;;;;
2021/02/13 05:39:39;;;;;;;13.05;8.699999;;;;;;;-11.52;100;96555.46;;;;
2021/02/13 05:40:40;;;;;;;13.05;8.699999;;;;;;;-11.52;100;96555.46;;;;
2021/02/13 05:41:40;;;;;;;13.05;8.699999;;;;;;;-11.52;100;96555.46;;;;
2021/02/13 05:42:44;;;;;;;13.05;8.699999;;;;;;;-11.52;100;96555.46;;;;
2021/02/13 05:43:46;;;;;;;13.05;8.699999;;;;;;;-11.52;100;96555.46;;;;
2021/02/13 05:44:47;;;;;;;13.05;8.699999;;;;;;;-11.52;100;96555.46;;;;
2021/02/13 05:45:50;;;;;;;14.25;8.65;;;;;;;-11.53;100;96563.78;;;;
2021/02/13 05:46:52;;;;;;;14.25;8.65;;;;;;;-11.53;100;96563.78;;;;
2021/02/13 05:47:54;;;;;;;14.25;8.65;;;;;;;-11.53;100;96563.78;;;;
2021/02/13 05:48:58;;;;;;;14.25;8.65;;;;;;;-11.53;100;96563.78;;;;
2021/02/13 05:50:02;;;;;;;14.25;8.65;;;;;;;-11.53;100;96563.78;;;;
2021/02/13 05:51:05;;;;;;;14.25;8.65;;;;;;;-11.53;100;96563.78;;;;
2021/02/13 05:52:09;;;;;;;14.25;8.65;;;;;;;-11.53;100;96563.78;;;;
2021/02/13 05:53:11;;;;;;;14.25;8.65;;;;;;;-11.53;100;96563.78;;;;
2021/02/13 05:54:13;;;;;;;14.25;8.65;;;;;;;-11.53;100;96563.78;;;;
2021/02/13 05:55:14;;;;;;;14.25;8.65;;;;;;;-11.53;100;96563.78;;;;
2021/02/13 05:56:17;;;;;;;13.65;8.9;;;;;;;-11.57;100;96576.11;;;;
2021/02/13 05:57:18;;;;;;;13.65;8.9;;;;;;;-11.57;100;96576.11;;;;
2021/02/13 05:58:19;;;;;;;13.65;8.9;;;;;;;-11.57;100;96576.11;;;;